»·PEaware :: N413C KCRQ-KMYF

N413C :: KCRQ-KMYF

FLIGHT INFORMATION

Flight Status: Arrived
Operator: Privately registered:
United States
More flights under this callsign
Pilot: Alec D. (17934)
Aircraft: PIPER PA-28 CHEROKEE ARCHER
(P28A)
More flights by this aircraft type
Origin: KCRQ McClellan-Palomar
United States
Destination: KMYF Montgomery
United States
More flights between these airports :: More routes between these airports
Route: +MZB
File this flight plan on PilotEdge
Remarks:
Altitude:
(Current/Filed)
3,000ft
Speed:
(Current/Filed)
105kts
Departed: 13-Jun-18 08:19 AM
Arrived: 13-Jun-18 08:59 AM
Distance/Time
Traveled:
20nm/0:40
Distance/Time
To Go:
Arrived

Flight Plot

Page will automatically refresh every two minutes.


Map Options




Map Legend


Flown Route
Filed Route
Departure Airport
Arrival Airport
Navaid (VOR, NDB)
Fix

Horizontal Profiles

Position Reports

Time Latitude Longitude Heading Altitude Ground
Speed
13-Jun-18 08:04 33.127175 -117.277288 79 333ft 0kts
13-Jun-18 08:05 33.127175 -117.277288 79 333ft 0kts
13-Jun-18 08:06 33.127175 -117.277287 79 333ft 0kts
13-Jun-18 08:07 33.127175 -117.277285 79 333ft 0kts
13-Jun-18 08:08 33.127176 -117.277282 79 333ft 0kts
13-Jun-18 08:09 33.127176 -117.277279 79 333ft 0kts
13-Jun-18 08:10 33.127176 -117.277277 79 333ft 0kts
13-Jun-18 08:11 33.127177 -117.277275 79 333ft 0kts
13-Jun-18 08:12 33.127177 -117.277272 79 333ft 0kts
13-Jun-18 08:13 33.128195 -117.274096 97 333ft 10kts
13-Jun-18 08:14 33.128260 -117.272221 9 333ft 0kts
13-Jun-18 08:15 33.128269 -117.272219 9 333ft 0kts
13-Jun-18 08:16 33.128272 -117.272219 9 333ft 0kts
13-Jun-18 08:17 33.128786 -117.272344 349 333ft 7kts
13-Jun-18 08:18 33.128859 -117.272360 349 333ft 1kts
13-Jun-18 08:19 33.127187 -117.285209 260 534ft 89kts
13-Jun-18 08:20 33.123202 -117.315797 261 1180ft 94kts
13-Jun-18 08:21 33.119379 -117.346419 262 1791ft 93kts
13-Jun-18 08:22 33.115548 -117.376064 260 2343ft 89kts
13-Jun-18 08:23 33.099295 -117.392261 157 2770ft 93kts
13-Jun-18 08:24 33.077018 -117.377011 147 3230ft 88kts
13-Jun-18 08:25 33.056033 -117.361220 144 3652ft 89kts
13-Jun-18 08:26 33.033921 -117.347243 157 3984ft 94kts
13-Jun-18 08:27 33.008381 -117.332687 152 3994ft 103kts
13-Jun-18 08:28 32.981557 -117.317204 155 3959ft 111kts
13-Jun-18 08:29 32.954380 -117.302024 156 3999ft 106kts
13-Jun-18 08:30 32.926155 -117.289582 161 3975ft 107kts
13-Jun-18 08:31 32.897533 -117.278825 161 3971ft 108kts
13-Jun-18 08:32 32.869883 -117.266209 139 4001ft 107kts
13-Jun-18 08:33 32.861485 -117.232436 101 3993ft 109kts
13-Jun-18 08:34 32.856529 -117.197129 98 4030ft 107kts
13-Jun-18 08:35 32.850143 -117.162014 104 4024ft 107kts
13-Jun-18 08:36 32.843905 -117.127062 101 4015ft 108kts
13-Jun-18 08:37 32.837638 -117.091919 102 4016ft 110kts
13-Jun-18 08:38 32.832550 -117.056397 98 4011ft 110kts
13-Jun-18 08:39 32.826665 -117.020685 101 4002ft 109kts
13-Jun-18 08:40 32.820703 -116.984945 98 3998ft 108kts
13-Jun-18 08:41 32.815758 -116.949305 98 3997ft 109kts
13-Jun-18 08:42 32.811831 -116.913742 97 4026ft 108kts
13-Jun-18 08:43 32.808436 -116.877299 95 4057ft 113kts
13-Jun-18 08:44 32.806048 -116.838233 95 4039ft 126kts
13-Jun-18 08:45 32.802557 -116.798104 99 3999ft 117kts
13-Jun-18 08:46 32.781657 -116.784325 217 4059ft 113kts
13-Jun-18 08:47 32.757443 -116.809332 220 3975ft 112kts
13-Jun-18 08:48 32.733590 -116.831644 219 4036ft 107kts
13-Jun-18 08:49 32.713076 -116.856756 266 4012ft 114kts
13-Jun-18 08:50 32.719074 -116.892373 292 4044ft 112kts
13-Jun-18 08:51 32.730533 -116.925244 290 3973ft 104kts
13-Jun-18 08:52 32.742583 -116.956554 294 3613ft 104kts
13-Jun-18 08:53 32.756132 -116.986877 294 3225ft 105kts
13-Jun-18 08:54 32.767718 -117.018474 290 2671ft 105kts
13-Jun-18 08:55 32.779599 -117.049509 295 1886ft 100kts
13-Jun-18 08:56 32.791210 -117.077158 297 1476ft 93kts
13-Jun-18 08:57 32.802554 -117.105120 297 1044ft 91kts
13-Jun-18 08:58 32.812129 -117.129385 294 558ft 67kts
13-Jun-18 08:59 32.817753 -117.143654 296 429ft 27kts
13-Jun-18 09:00 32.817690 -117.145260 204 429ft 0kts
13-Jun-18 09:01 32.816788 -117.145718 204 429ft 16kts
13-Jun-18 09:02 32.815404 -117.143409 117 429ft 27kts
13-Jun-18 09:03 32.814045 -117.141471 200 429ft 0kts
13-Jun-18 09:04 32.814045 -117.141471 200 429ft 0kts

Navigation Log

Ident Type
1. KCRQ Airport
2. MZB Navaid
3. KMYF Airport